createdAt,value
2022-11-06T00:00:48.854Z,32.65
2022-11-06T00:03:16.969Z,30.88
2022-11-06T00:06:03.559Z,30.77
2022-11-06T00:08:37.639Z,31.10
2022-11-06T00:11:15.103Z,29.42
2022-11-06T00:13:44.299Z,29.35
2022-11-06T00:16:16.096Z,28.17
2022-11-06T00:21:18.460Z,28.58
2022-11-06T00:23:49.732Z,27.38
2022-11-06T00:26:25.906Z,25.73
2022-11-06T00:28:55.103Z,25.48
2022-11-06T00:31:27.965Z,27.02
2022-11-06T00:33:58.477Z,24.40
2022-11-06T00:36:30.450Z,25.10
2022-11-06T00:38:59.895Z,26.13
2022-11-06T00:41:28.658Z,24.77
2022-11-06T00:44:02.024Z,23.42
2022-11-06T00:46:30.390Z,24.83
2022-11-06T00:48:58.811Z,25.13
2022-11-06T00:51:30.932Z,26.20
2022-11-06T00:54:02.578Z,23.85
2022-11-06T00:56:31.934Z,22.98
2022-11-06T00:59:02.194Z,24.92
2022-11-06T01:01:33.521Z,22.13
2022-11-06T01:04:04.437Z,22.20
2022-11-06T01:06:36.527Z,20.57
2022-11-06T01:09:06.913Z,21.25
2022-11-06T01:12:13.727Z,21.35
2022-11-06T01:14:33.346Z,20.98
2022-11-06T01:17:01.569Z,21.65
2022-11-06T01:19:29.406Z,20.83
2022-11-06T01:22:00.416Z,21.92
2022-11-06T01:24:29.483Z,19.80
2022-11-06T01:27:31.875Z,21.92
2022-11-06T01:30:00.204Z,22.48
2022-11-06T01:32:28.313Z,21.13
2022-11-06T01:34:56.130Z,22.30
2022-11-06T01:37:24.125Z,24.05
2022-11-06T01:39:52.372Z,25.35
2022-11-06T01:42:21.910Z,26.70
2022-11-06T01:45:34.244Z,25.15
2022-11-06T01:50:31.689Z,25.30
2022-11-06T01:53:02.739Z,23.42
2022-11-06T01:55:38.395Z,23.48
2022-11-06T01:58:09.717Z,25.63
2022-11-06T02:00:38.036Z,24.25
2022-11-06T02:03:06.888Z,24.23
2022-11-06T02:05:34.815Z,26.08
2022-11-06T02:08:03.792Z,25.95
2022-11-06T02:10:32.736Z,25.25
2022-11-06T02:13:30.077Z,26.17
2022-11-06T02:16:38.872Z,26.17
2022-11-06T02:20:02.656Z,26.83
2022-11-06T02:23:08.384Z,24.88
2022-11-06T02:25:54.322Z,28.02
2022-11-06T02:28:32.915Z,27.52
2022-11-06T02:31:10.363Z,25.75
2022-11-06T02:33:56.066Z,26.35
2022-11-06T02:36:33.096Z,26.67
2022-11-06T02:39:09.924Z,27.10
2022-11-06T02:41:43.825Z,27.10
2022-11-06T02:44:19.875Z,27.52
2022-11-06T02:46:53.469Z,28.63
2022-11-06T02:49:36.997Z,27.38
2022-11-06T02:52:26.850Z,29.38
2022-11-06T02:55:23.335Z,28.52
2022-11-06T02:57:54.873Z,28.42
2022-11-06T03:00:24.788Z,30.67
2022-11-06T03:03:07.026Z,27.30
2022-11-06T03:05:49.083Z,25.88
2022-11-06T03:08:40.843Z,23.45
2022-11-06T03:11:29.667Z,23.20
2022-11-06T03:14:14.978Z,24.25
2022-11-06T03:17:19.682Z,20.45
2022-11-06T03:20:15.088Z,20.17
2022-11-06T03:22:48.437Z,18.85
2022-11-06T03:25:43.465Z,15.93
2022-11-06T03:28:29.720Z,18.50
2022-11-06T03:31:08.127Z,19.67
2022-11-06T03:34:06.804Z,18.00
2022-11-06T03:36:44.591Z,16.75
2022-11-06T03:39:21.990Z,17.63
2022-11-06T03:42:06.739Z,17.55
2022-11-06T03:44:43.453Z,18.85
2022-11-06T03:47:34.462Z,18.90
2022-11-06T03:50:29.471Z,16.85
2022-11-06T03:53:08.253Z,17.17
2022-11-06T03:55:48.934Z,17.50
2022-11-06T03:58:26.281Z,16.90
2022-11-06T04:00:56.712Z,16.73
2022-11-06T04:03:36.018Z,16.58
2022-11-06T04:06:27.238Z,16.85
2022-11-06T04:09:19.008Z,15.07
2022-11-06T04:12:08.862Z,16.98
2022-11-06T04:14:41.595Z,16.38
2022-11-06T04:17:14.248Z,13.88
2022-11-06T04:20:05.456Z,16.83
2022-11-06T04:24:09.788Z,16.23
2022-11-06T04:26:53.067Z,16.52
2022-11-06T04:29:48.274Z,15.77
2022-11-06T04:33:04.213Z,16.40
2022-11-06T04:35:48.294Z,17.17
2022-11-06T04:38:37.437Z,14.20
2022-11-06T04:41:26.547Z,16.35
2022-11-06T04:44:23.168Z,15.02
2022-11-06T04:47:13.204Z,16.13
2022-11-06T04:49:43.690Z,16.13
2022-11-06T04:52:23.591Z,14.73
2022-11-06T04:54:52.556Z,15.00
2022-11-06T04:57:20.437Z,15.52
2022-11-06T04:59:48.281Z,14.82
2022-11-06T05:02:17.507Z,15.05
2022-11-06T05:04:45.782Z,14.80
2022-11-06T05:07:15.149Z,14.40
2022-11-06T05:09:43.664Z,14.13
2022-11-06T05:12:11.706Z,14.50
2022-11-06T05:14:39.679Z,13.63
2022-11-06T05:17:08.170Z,14.65
2022-11-06T05:19:35.961Z,13.98
2022-11-06T05:22:22.963Z,15.02
2022-11-06T05:24:51.073Z,14.77
2022-11-06T05:27:18.992Z,13.35
2022-11-06T05:29:46.875Z,12.95
2022-11-06T05:32:15.093Z,15.13
2022-11-06T05:34:43.322Z,14.60
2022-11-06T05:37:11.134Z,13.10
2022-11-06T05:39:41.881Z,14.50
2022-11-06T05:42:10.045Z,13.82
2022-11-06T05:44:38.097Z,13.93
2022-11-06T05:47:08.228Z,14.25
2022-11-06T05:49:36.239Z,14.52
2022-11-06T05:52:04.357Z,13.35
2022-11-06T05:54:32.345Z,13.15
2022-11-06T05:57:00.152Z,14.68
2022-11-06T05:59:28.088Z,14.27
2022-11-06T06:01:56.905Z,14.05
2022-11-06T06:04:24.922Z,13.50
2022-11-06T06:06:52.983Z,12.55
2022-11-06T06:09:22.391Z,14.70
2022-11-06T06:11:54.268Z,38.80
2022-11-06T06:14:22.589Z,18.38
2022-11-06T06:16:50.405Z,28.88
2022-11-06T06:19:19.373Z,27.27
2022-11-06T06:21:47.868Z,37.45
2022-11-06T06:24:15.914Z,16.88
2022-11-06T06:26:44.167Z,17.33
2022-11-06T06:29:12.278Z,13.40
2022-11-06T06:31:40.227Z,12.55
2022-11-06T06:34:08.748Z,13.82
2022-11-06T06:36:36.622Z,13.02
2022-11-06T06:39:05.701Z,12.90
2022-11-06T06:41:34.642Z,14.20
2022-11-06T06:44:02.601Z,15.05
2022-11-06T06:46:30.749Z,13.27
2022-11-06T06:48:59.303Z,12.70
2022-11-06T06:51:27.296Z,12.88
2022-11-06T06:53:55.341Z,11.98
2022-11-06T06:56:23.381Z,12.13
2022-11-06T06:58:55.665Z,13.77
2022-11-06T07:01:23.865Z,12.48
2022-11-06T07:03:51.855Z,12.65
2022-11-06T07:06:20.631Z,13.10
2022-11-06T07:09:39.354Z,13.95
2022-11-06T07:12:08.038Z,11.85
2022-11-06T07:14:35.994Z,17.80
2022-11-06T07:17:04.096Z,12.35
2022-11-06T07:19:32.008Z,18.00
2022-11-06T07:21:59.853Z,13.05
2022-11-06T07:24:27.812Z,14.18
2022-11-06T07:26:56.143Z,13.98
2022-11-06T07:29:24.162Z,13.38
2022-11-06T07:31:52.125Z,14.02
2022-11-06T07:34:20.233Z,14.10
2022-11-06T07:36:48.620Z,15.20
2022-11-06T07:39:17.183Z,14.40
2022-11-06T07:41:45.121Z,13.18
2022-11-06T07:44:13.320Z,14.07
2022-11-06T07:46:41.406Z,14.00
2022-11-06T07:49:10.324Z,15.30
2022-11-06T07:51:38.447Z,13.57
2022-11-06T07:54:06.977Z,14.43
2022-11-06T07:56:35.213Z,12.27
2022-11-06T07:59:03.725Z,11.90
2022-11-06T08:01:32.106Z,20.55
2022-11-06T08:04:00.015Z,13.43
2022-11-06T08:06:27.948Z,13.75
2022-11-06T08:08:58.863Z,12.35
2022-11-06T08:11:27.843Z,11.55
2022-11-06T08:13:57.981Z,10.45
2022-11-06T08:16:26.256Z,10.75
2022-11-06T08:18:54.246Z,10.50
2022-11-06T08:21:22.212Z,9.82
2022-11-06T08:23:50.299Z,10.40
2022-11-06T08:26:18.448Z,9.35
2022-11-06T08:28:46.529Z,9.00
2022-11-06T08:31:14.661Z,9.07
2022-11-06T08:33:43.977Z,9.10
2022-11-06T08:36:12.021Z,9.32
2022-11-06T08:38:40.798Z,7.97
2022-11-06T08:41:12.437Z,8.40
2022-11-06T08:46:10.274Z,7.35
2022-11-06T08:48:38.257Z,7.88
2022-11-06T08:51:07.219Z,7.40
2022-11-06T08:53:35.350Z,7.45
2022-11-06T08:56:05.382Z,8.13
2022-11-06T08:58:33.359Z,7.32
2022-11-06T09:01:01.585Z,7.10
2022-11-06T09:03:29.760Z,6.28
2022-11-06T09:06:00.283Z,7.82
2022-11-06T09:08:28.441Z,13.32
2022-11-06T09:10:58.890Z,8.63
2022-11-06T09:13:27.545Z,15.75
2022-11-06T09:15:55.415Z,10.82
2022-11-06T09:18:23.307Z,7.15
2022-11-06T09:20:56.355Z,7.47
2022-11-06T09:23:25.400Z,7.35
2022-11-06T09:25:53.348Z,5.93
2022-11-06T09:28:22.548Z,9.80
2022-11-06T09:30:50.571Z,7.38
2022-11-06T09:33:19.176Z,8.57
2022-11-06T09:35:48.263Z,12.50
2022-11-06T09:38:16.571Z,9.50
2022-11-06T09:40:49.261Z,8.93
2022-11-06T09:44:17.335Z,8.80
2022-11-06T09:46:48.629Z,7.03
2022-11-06T09:49:46.496Z,13.15
2022-11-06T09:52:23.520Z,9.98
2022-11-06T09:55:27.310Z,10.68
2022-11-06T09:58:02.908Z,9.30
2022-11-06T10:00:31.261Z,7.32
2022-11-06T10:03:12.895Z,5.43
2022-11-06T10:08:22.641Z,7.05
2022-11-06T10:11:04.264Z,5.75
2022-11-06T10:13:38.095Z,5.95
2022-11-06T10:16:19.119Z,4.38
2022-11-06T10:19:02.260Z,4.57
2022-11-06T10:21:43.828Z,4.88
2022-11-06T10:24:44.462Z,5.40
2022-11-06T10:27:27.678Z,4.90
2022-11-06T10:30:04.750Z,4.20
2022-11-06T10:32:45.381Z,6.03
2022-11-06T10:35:44.081Z,6.85
2022-11-06T10:38:25.240Z,5.60
2022-11-06T10:40:55.172Z,5.55
2022-11-06T10:43:39.049Z,5.35
2022-11-06T10:46:36.334Z,4.97
2022-11-06T10:49:28.049Z,4.38
2022-11-06T10:52:45.691Z,4.75
2022-11-06T10:55:53.928Z,4.32
2022-11-06T10:58:31.770Z,4.38
2022-11-06T11:01:06.005Z,3.83
2022-11-06T11:03:43.866Z,3.63
2022-11-06T11:06:12.383Z,3.40
2022-11-06T11:08:46.013Z,3.63
2022-11-06T11:11:13.924Z,3.53
2022-11-06T11:13:51.059Z,3.80
2022-11-06T11:16:30.192Z,3.63
2022-11-06T11:19:35.266Z,3.63
2022-11-06T11:22:19.315Z,2.75
2022-11-06T11:25:08.182Z,2.97
2022-11-06T11:27:44.380Z,3.17
2022-11-06T11:30:27.540Z,3.20
2022-11-06T11:32:57.950Z,3.63
2022-11-06T11:35:35.769Z,4.18
2022-11-06T11:38:16.982Z,3.05
2022-11-06T11:40:45.913Z,3.40
2022-11-06T11:43:28.949Z,3.65
2022-11-06T11:46:09.477Z,3.22
2022-11-06T11:48:52.459Z,3.30
2022-11-06T11:51:37.368Z,2.85
2022-11-06T11:54:23.777Z,2.75
2022-11-06T11:57:05.269Z,3.00
2022-11-06T12:00:03.143Z,3.20
2022-11-06T12:02:53.313Z,3.33
2022-11-06T12:05:35.471Z,3.40
2022-11-06T12:08:04.906Z,4.20
2022-11-06T12:10:36.537Z,3.03
2022-11-06T12:13:23.088Z,3.72
2022-11-06T12:16:09.275Z,3.80
2022-11-06T12:18:57.635Z,3.03
2022-11-06T12:21:30.194Z,3.60
2022-11-06T12:27:03.394Z,3.67
2022-11-06T12:30:06.005Z,3.10
2022-11-06T12:32:44.965Z,3.38
2022-11-06T12:35:32.449Z,4.05
2022-11-06T12:38:35.199Z,3.92
2022-11-06T12:43:48.377Z,3.22
2022-11-06T12:46:35.889Z,3.20
2022-11-06T12:49:21.914Z,3.67
2022-11-06T12:51:52.766Z,4.45
2022-11-06T12:55:15.780Z,3.85
2022-11-06T12:58:04.454Z,3.90
2022-11-06T13:00:51.943Z,4.30
2022-11-06T13:03:28.877Z,3.90
2022-11-06T13:06:05.969Z,4.13
2022-11-06T13:09:06.822Z,3.20
2022-11-06T13:12:07.009Z,3.15
2022-11-06T13:15:01.829Z,3.20
2022-11-06T13:17:44.696Z,3.13
2022-11-06T13:20:32.022Z,2.75
2022-11-06T13:23:40.984Z,2.55
2022-11-06T13:26:45.790Z,2.00
2022-11-06T13:29:17.724Z,1.88
2022-11-06T13:32:01.558Z,2.10
2022-11-06T13:34:56.566Z,1.92
2022-11-06T13:37:41.268Z,1.80
2022-11-06T13:40:25.903Z,2.10
2022-11-06T13:43:06.379Z,1.70
2022-11-06T13:46:05.250Z,2.30
2022-11-06T13:49:31.439Z,2.47
2022-11-06T13:52:18.102Z,2.13
2022-11-06T13:55:22.692Z,2.10
2022-11-06T13:58:12.978Z,3.53
2022-11-06T14:00:53.002Z,5.05
2022-11-06T14:03:52.345Z,4.78
2022-11-06T14:06:25.784Z,4.97
2022-11-06T14:09:02.290Z,4.00
2022-11-06T14:11:35.040Z,4.45
2022-11-06T14:14:26.942Z,3.00
2022-11-06T14:17:24.262Z,3.13
2022-11-06T14:19:52.079Z,2.92
2022-11-06T14:22:38.735Z,3.75
2022-11-06T14:25:28.619Z,3.60
2022-11-06T14:27:56.441Z,3.90
2022-11-06T14:30:57.562Z,3.53
2022-11-06T14:33:43.706Z,3.38
2022-11-06T14:36:37.636Z,5.00
2022-11-06T14:39:13.571Z,8.15
2022-11-06T14:41:45.726Z,5.70
2022-11-06T14:44:34.146Z,4.68
2022-11-06T14:47:06.661Z,4.10
2022-11-06T14:49:46.412Z,5.20
2022-11-06T14:52:16.629Z,8.05
2022-11-06T14:55:05.508Z,7.28
2022-11-06T14:57:41.257Z,7.00
2022-11-06T15:00:35.669Z,4.82
2022-11-06T15:03:17.368Z,7.40
2022-11-06T15:05:51.051Z,21.23
2022-11-06T15:08:50.810Z,30.67
2022-11-06T15:11:30.869Z,24.75
2022-11-06T15:14:07.792Z,17.88
2022-11-06T15:16:47.393Z,7.25
2022-11-06T15:19:27.109Z,5.90
2022-11-06T15:22:30.840Z,5.30
2022-11-06T15:25:21.877Z,3.63
2022-11-06T15:28:11.720Z,3.15
2022-11-06T15:31:04.582Z,3.70
2022-11-06T15:33:42.025Z,4.82
2022-11-06T15:36:22.865Z,4.93
2022-11-06T15:38:51.362Z,5.18
2022-11-06T15:41:23.740Z,4.97
2022-11-06T15:44:22.277Z,5.07
2022-11-06T15:46:59.920Z,5.70
2022-11-06T15:49:28.452Z,6.75
2022-11-06T15:52:01.901Z,7.43
2022-11-06T15:54:39.714Z,17.88
2022-11-06T15:57:28.311Z,15.60
2022-11-06T16:00:16.352Z,14.55
2022-11-06T16:02:58.222Z,8.90
2022-11-06T16:07:59.601Z,7.07
2022-11-06T16:10:27.970Z,7.00
2022-11-06T16:12:56.523Z,6.40
2022-11-06T16:16:24.582Z,7.07
2022-11-06T16:18:54.256Z,5.85
2022-11-06T16:21:28.218Z,5.78
2022-11-06T16:24:02.344Z,5.18
2022-11-06T16:26:34.045Z,6.20
2022-11-06T16:31:32.062Z,5.28
2022-11-06T16:34:33.332Z,5.25
2022-11-06T16:37:35.502Z,5.90
2022-11-06T16:42:39.042Z,12.68
2022-11-06T16:45:21.561Z,9.45
2022-11-06T16:48:25.289Z,10.82
2022-11-06T16:51:23.262Z,6.15
2022-11-06T16:53:57.540Z,5.97
2022-11-06T16:56:30.889Z,6.45
2022-11-06T16:59:09.149Z,9.02
2022-11-06T17:01:46.702Z,9.35
2022-11-06T17:04:31.044Z,20.45
2022-11-06T17:06:59.366Z,28.23
2022-11-06T17:09:33.307Z,22.50
2022-11-06T17:12:03.265Z,19.15
2022-11-06T17:14:33.554Z,14.00
2022-11-06T17:17:02.687Z,11.73
2022-11-06T17:19:31.168Z,10.77
2022-11-06T17:21:59.820Z,12.77
2022-11-06T17:24:42.908Z,18.65
2022-11-06T17:27:11.117Z,16.90
2022-11-06T17:29:39.154Z,13.50
2022-11-06T17:32:07.767Z,31.85
2022-11-06T17:34:38.444Z,15.52
2022-11-06T17:37:06.809Z,11.88
2022-11-06T17:39:34.736Z,10.05
2022-11-06T17:42:07.657Z,10.02
2022-11-06T17:44:35.754Z,9.73
2022-11-06T17:47:04.087Z,9.63
2022-11-06T17:49:32.129Z,8.82
2022-11-06T17:52:00.714Z,11.30
2022-11-06T17:54:33.421Z,9.02
2022-11-06T17:57:05.231Z,10.25
2022-11-06T18:02:02.623Z,20.95
2022-11-06T18:04:31.065Z,36.20
2022-11-06T18:06:59.079Z,48.17
2022-11-06T18:09:27.379Z,14.07
2022-11-06T18:11:56.718Z,11.43
2022-11-06T18:14:29.402Z,11.25
2022-11-06T18:16:57.861Z,9.50
2022-11-06T18:19:27.123Z,10.63
2022-11-06T18:21:56.100Z,9.60
2022-11-06T18:24:25.198Z,9.45
2022-11-06T18:26:53.584Z,9.10
2022-11-06T18:29:21.627Z,8.85
2022-11-06T18:31:49.698Z,8.93
2022-11-06T18:34:21.095Z,14.45
2022-11-06T18:36:51.101Z,10.30
2022-11-06T18:39:19.752Z,9.43
2022-11-06T18:41:49.118Z,9.88
2022-11-06T18:44:18.368Z,9.05
2022-11-06T18:46:47.423Z,9.27
2022-11-06T18:49:16.492Z,8.77
2022-11-06T18:51:44.786Z,8.80
2022-11-06T18:54:13.620Z,8.80
2022-11-06T18:56:42.222Z,8.80
2022-11-06T18:59:17.110Z,8.05
2022-11-06T19:01:45.843Z,8.20
2022-11-06T19:04:14.226Z,9.27
2022-11-06T19:06:42.720Z,7.65
2022-11-06T19:09:11.005Z,9.10
2022-11-06T19:11:39.143Z,8.27
2022-11-06T19:14:08.334Z,8.73
2022-11-06T19:16:36.878Z,8.02
2022-11-06T19:19:11.636Z,7.97
2022-11-06T19:21:43.261Z,9.00
2022-11-06T19:24:12.166Z,11.15
2022-11-06T19:26:40.630Z,10.18
2022-11-06T19:29:09.737Z,9.80
2022-11-06T19:31:38.614Z,10.18
2022-11-06T19:34:08.886Z,10.55
2022-11-06T19:36:36.988Z,23.75
2022-11-06T19:39:08.520Z,19.65
2022-11-06T19:41:36.633Z,27.65
2022-11-06T19:44:04.855Z,16.10
2022-11-06T19:46:35.986Z,15.57
2022-11-06T19:49:06.885Z,11.93
2022-11-06T19:51:37.881Z,13.52
2022-11-06T19:54:07.832Z,13.38
2022-11-06T19:56:37.341Z,15.10
2022-11-06T19:59:25.960Z,13.20
2022-11-06T20:01:54.507Z,16.65
2022-11-06T20:04:22.962Z,12.38
2022-11-06T20:06:51.700Z,11.73
2022-11-06T20:09:19.813Z,11.40
2022-11-06T20:11:47.858Z,12.13
2022-11-06T20:14:19.034Z,12.65
2022-11-06T20:16:48.098Z,11.38
2022-11-06T20:19:16.123Z,11.88
2022-11-06T20:21:44.145Z,11.95
2022-11-06T20:24:12.327Z,12.55
2022-11-06T20:26:40.904Z,13.23
2022-11-06T20:29:09.442Z,12.73
2022-11-06T20:31:37.883Z,13.23
2022-11-06T20:34:07.024Z,12.27
2022-11-06T20:36:36.033Z,12.25
2022-11-06T20:39:04.675Z,13.52
2022-11-06T20:41:32.725Z,13.15
2022-11-06T20:44:02.561Z,12.43
2022-11-06T20:46:31.005Z,13.07
2022-11-06T20:48:59.116Z,13.35
2022-11-06T20:51:29.617Z,13.45
2022-11-06T20:53:57.840Z,15.23
2022-11-06T20:56:27.091Z,17.13
2022-11-06T20:58:56.625Z,16.75
2022-11-06T21:01:28.023Z,16.25
2022-11-06T21:03:58.493Z,14.95
2022-11-06T21:06:34.340Z,16.58
2022-11-06T21:09:08.922Z,17.33
2022-11-06T21:14:08.770Z,15.68
2022-11-06T21:16:37.650Z,14.07
2022-11-06T21:19:07.881Z,14.88
2022-11-06T21:21:39.226Z,14.90
2022-11-06T21:24:08.483Z,14.48
2022-11-06T21:26:38.087Z,15.05
2022-11-06T21:29:15.480Z,14.63
2022-11-06T21:31:49.016Z,13.90
2022-11-06T21:34:19.453Z,14.10
2022-11-06T21:36:48.241Z,14.10
2022-11-06T21:39:19.609Z,13.80
2022-11-06T21:41:47.869Z,14.93
2022-11-06T21:44:18.251Z,14.40
2022-11-06T21:46:46.544Z,14.27
2022-11-06T21:49:14.980Z,14.55
2022-11-06T21:51:43.395Z,13.98
2022-11-06T21:54:31.517Z,14.30
2022-11-06T21:56:59.448Z,15.82
2022-11-06T21:59:29.378Z,14.73
2022-11-06T22:01:57.903Z,15.10
2022-11-06T22:04:26.042Z,14.60
2022-11-06T22:06:55.479Z,15.13
2022-11-06T22:09:25.597Z,16.70
2022-11-06T22:11:54.552Z,16.27
2022-11-06T22:14:22.995Z,18.15
2022-11-06T22:16:51.191Z,17.23
2022-11-06T22:19:19.298Z,16.52
2022-11-06T22:21:47.612Z,14.88
2022-11-06T22:24:16.082Z,15.70
2022-11-06T22:26:44.055Z,14.30
2022-11-06T22:29:14.624Z,14.02
2022-11-06T22:31:42.866Z,13.75
2022-11-06T22:34:12.814Z,14.63
2022-11-06T22:36:41.949Z,14.93
2022-11-06T22:39:12.617Z,14.60
2022-11-06T22:41:41.293Z,14.80
2022-11-06T22:44:09.809Z,14.10
2022-11-06T22:46:38.045Z,14.73
2022-11-06T22:49:08.636Z,15.05
2022-11-06T22:51:36.984Z,13.70
2022-11-06T22:54:05.981Z,14.85
2022-11-06T22:56:35.765Z,13.75
2022-11-06T22:59:09.061Z,13.63
2022-11-06T23:01:42.345Z,14.10
2022-11-06T23:04:17.411Z,12.68
2022-11-06T23:06:47.469Z,14.57
2022-11-06T23:09:15.408Z,14.23
2022-11-06T23:11:47.102Z,14.52
2022-11-06T23:16:58.318Z,14.35
2022-11-06T23:19:28.616Z,14.90
2022-11-06T23:22:17.125Z,14.50
2022-11-06T23:24:45.752Z,13.70
2022-11-06T23:27:16.578Z,13.43
2022-11-06T23:29:44.678Z,13.00
2022-11-06T23:32:12.666Z,13.98
2022-11-06T23:34:42.659Z,13.40
2022-11-06T23:37:10.877Z,13.80
2022-11-06T23:39:41.038Z,13.52
2022-11-06T23:42:13.916Z,12.93
2022-11-06T23:45:00.412Z,12.45
2022-11-06T23:47:28.744Z,13.43
2022-11-06T23:49:56.724Z,13.65
2022-11-06T23:52:24.984Z,12.75
2022-11-06T23:54:53.485Z,12.77
2022-11-06T23:57:22.019Z,13.77
2022-11-06T23:59:49.837Z,13.10
